map of VUP home
VUP - Airport
Location
City:  Valledupar, Cesar, Colombia
Name:Alfonso López Pumarejo Airport
ICAO:SKVP
IATA:VUP

Details
Type:Airport (Aerodrome, Airfield)
Latitude:10°26'06"N (10.435072)
Longitude:73°14'58"W (-73.249430)
Elevation:456 ft (139 m)
Variation:8.62°W (WMM2015 magnetic declination)
-0.12° annual change
Runways:1
Longest:6890 × 98 ft (2100 × 30 m), paved

Time
Time Zone:UTC-5
Local Time:

Weather
METAR:SKVP 152100Z 05014KT 9999 FEW020 33/18 A2980

Related Locations
Nearby:
Farthest:XCH: 12378 mi / 19920 km
Christmas Island, CX

Find:

   beyond  
but within

Other Information
Maps:
NOTAMs:
Links:
Sources:

  
flag of Colombia
flag of Cesar
  

Sectional Chart

Flight Planning
at skyvector.com

Satellite Image

Google Maps Satellite view

 

Copyright © 2004-2017 Karl L. Swartz. All rights reserved.
The Great Circle Mapper name and logo are trademarks of the Great Circle Mapper.
All other trademarks mentioned herein belong to their respective owners.
Please see credits for attibutions and further copyright information.

  Follow gcmap on Facebook Follow gcmap on Twitter Follow gcmap on Google+ GCmap on LinkedIn

hCard Microformat

Geo Microformat